createdAt,value
2019-02-19T00:01:29.557Z,3.70
2019-02-19T00:04:00.295Z,3.60
2019-02-19T00:06:31.154Z,3.60
2019-02-19T00:09:01.984Z,3.60
2019-02-19T00:11:34.387Z,3.60
2019-02-19T00:14:04.853Z,3.50
2019-02-19T00:16:35.522Z,3.50
2019-02-19T00:19:06.025Z,3.40
2019-02-19T00:21:36.743Z,3.40
2019-02-19T00:24:07.427Z,3.30
2019-02-19T00:26:38.148Z,3.30
2019-02-19T00:29:08.920Z,3.30
2019-02-19T00:31:39.717Z,3.30
2019-02-19T00:34:10.648Z,3.30
2019-02-19T00:36:41.446Z,3.20
2019-02-19T00:39:12.157Z,3.20
2019-02-19T00:41:42.796Z,3.10
2019-02-19T00:44:13.639Z,3.10
2019-02-19T00:46:44.398Z,3.00
2019-02-19T00:49:14.911Z,3.00
2019-02-19T00:51:45.499Z,2.90
2019-02-19T00:54:16.209Z,2.80
2019-02-19T00:56:46.832Z,2.80
2019-02-19T00:59:17.524Z,2.70
2019-02-19T01:01:48.325Z,2.70
2019-02-19T01:04:19.191Z,2.60
2019-02-19T01:06:49.951Z,2.50
2019-02-19T01:09:20.985Z,2.50
2019-02-19T01:11:52.126Z,2.50
2019-02-19T01:14:22.773Z,2.50
2019-02-19T01:16:53.878Z,2.40
2019-02-19T01:19:24.584Z,2.40
2019-02-19T01:21:55.336Z,2.30
2019-02-19T01:24:26.236Z,2.30
2019-02-19T01:26:58.036Z,2.20
2019-02-19T01:29:28.626Z,2.20
2019-02-19T01:31:59.372Z,2.20
2019-02-19T01:34:30.120Z,2.10
2019-02-19T01:37:00.848Z,2.00
2019-02-19T01:39:31.540Z,2.00
2019-02-19T01:42:02.911Z,1.90
2019-02-19T01:44:34.154Z,1.90
2019-02-19T01:47:05.434Z,1.90
2019-02-19T01:49:36.170Z,1.90
2019-02-19T01:52:06.766Z,1.80
2019-02-19T01:54:37.663Z,1.70
2019-02-19T01:57:08.756Z,1.70
2019-02-19T01:59:39.877Z,1.70
2019-02-19T02:02:10.762Z,1.70
2019-02-19T02:04:43.562Z,1.60
2019-02-19T02:07:15.041Z,1.70
2019-02-19T02:09:46.237Z,1.70
2019-02-19T02:12:17.205Z,1.60
2019-02-19T02:14:48.423Z,1.50
2019-02-19T02:17:19.601Z,1.40
2019-02-19T02:19:50.511Z,1.40
2019-02-19T02:22:21.218Z,1.30
2019-02-19T02:24:52.137Z,1.40
2019-02-19T02:27:22.923Z,1.30
2019-02-19T02:29:53.499Z,1.30
2019-02-19T02:32:24.260Z,1.20
2019-02-19T02:34:54.861Z,1.20
2019-02-19T02:37:25.861Z,1.20
2019-02-19T02:39:56.672Z,1.20
2019-02-19T02:42:27.738Z,1.20
2019-02-19T02:44:58.470Z,1.10
2019-02-19T02:47:29.275Z,1.20
2019-02-19T02:50:00.529Z,1.20
2019-02-19T02:52:31.407Z,1.20
2019-02-19T02:55:02.719Z,1.30
2019-02-19T02:57:33.445Z,1.30
2019-02-19T03:00:04.214Z,1.30
2019-02-19T03:02:35.715Z,1.30
2019-02-19T03:05:06.626Z,1.40
2019-02-19T03:07:40.438Z,1.40
2019-02-19T03:10:11.504Z,1.30
2019-02-19T03:12:42.241Z,1.30
2019-02-19T03:15:13.204Z,1.20
2019-02-19T03:17:44.333Z,1.20
2019-02-19T03:20:14.976Z,1.00
2019-02-19T03:22:45.765Z,1.10
2019-02-19T03:25:16.493Z,1.10
2019-02-19T03:27:47.195Z,1.10
2019-02-19T03:30:18.324Z,1.10
2019-02-19T03:32:49.333Z,1.10
2019-02-19T03:35:20.213Z,1.00
2019-02-19T03:37:50.878Z,0.90
2019-02-19T03:40:21.428Z,0.90
2019-02-19T03:42:52.410Z,0.90
2019-02-19T03:45:23.205Z,0.80
2019-02-19T03:47:54.185Z,0.80
2019-02-19T03:50:24.841Z,0.70
2019-02-19T03:52:55.985Z,0.70
2019-02-19T03:55:27.027Z,0.80
2019-02-19T03:57:58.403Z,0.70
2019-02-19T04:00:28.960Z,0.80
2019-02-19T04:03:00.330Z,0.80
2019-02-19T04:05:31.196Z,0.80
2019-02-19T04:08:01.684Z,0.80
2019-02-19T04:10:32.279Z,0.80
2019-02-19T04:13:02.804Z,0.80
2019-02-19T04:15:33.476Z,0.80
2019-02-19T04:18:04.259Z,0.80
2019-02-19T04:20:34.968Z,0.80
2019-02-19T04:23:05.547Z,0.80
2019-02-19T04:25:36.420Z,0.70
2019-02-19T04:28:08.244Z,0.70
2019-02-19T04:30:39.000Z,0.80
2019-02-19T04:33:09.495Z,0.70
2019-02-19T04:35:40.268Z,0.70
2019-02-19T04:38:10.899Z,0.80
2019-02-19T04:40:41.957Z,0.80
2019-02-19T04:43:12.813Z,0.80
2019-02-19T04:45:43.839Z,0.80
2019-02-19T04:48:14.632Z,0.80
2019-02-19T04:50:45.962Z,0.80
2019-02-19T04:53:16.562Z,0.80
2019-02-19T04:55:47.811Z,0.80
2019-02-19T04:58:18.845Z,0.80
2019-02-19T05:00:49.887Z,0.80
2019-02-19T05:03:20.727Z,0.80
2019-02-19T05:05:51.454Z,0.80
2019-02-19T05:08:22.417Z,0.70
2019-02-19T05:10:53.124Z,0.70
2019-02-19T05:13:23.997Z,0.70
2019-02-19T05:15:54.890Z,0.70
2019-02-19T05:18:25.871Z,0.60
2019-02-19T05:20:56.355Z,0.50
2019-02-19T05:23:27.099Z,0.50
2019-02-19T05:25:57.662Z,0.50
2019-02-19T05:28:28.356Z,0.40
2019-02-19T05:30:59.168Z,0.40
2019-02-19T05:33:29.814Z,0.30
2019-02-19T05:36:00.526Z,0.20
2019-02-19T05:38:31.292Z,0.20
2019-02-19T05:41:02.482Z,0.10
2019-02-19T05:43:33.737Z,0.10
2019-02-19T05:46:04.236Z,0.00
2019-02-19T05:48:34.986Z,0.00
2019-02-19T05:51:05.669Z,0.00
2019-02-19T05:53:36.471Z,-0.10
2019-02-19T05:56:07.408Z,-0.10
2019-02-19T05:58:38.139Z,-0.10
2019-02-19T06:01:08.930Z,0.00
2019-02-19T06:03:39.556Z,0.10
2019-02-19T06:06:10.450Z,0.20
2019-02-19T06:08:41.466Z,0.20
2019-02-19T06:11:12.088Z,0.30
2019-02-19T06:13:42.887Z,0.40
2019-02-19T06:16:13.586Z,0.50
2019-02-19T06:18:44.354Z,0.70
2019-02-19T06:21:15.238Z,0.90
2019-02-19T06:23:46.218Z,1.10
2019-02-19T06:26:17.123Z,1.30
2019-02-19T06:28:47.961Z,1.60
2019-02-19T06:31:19.669Z,1.90
2019-02-19T06:33:50.157Z,2.20
2019-02-19T06:36:20.963Z,2.50
2019-02-19T06:38:52.675Z,2.70
2019-02-19T06:41:23.262Z,3.00
2019-02-19T06:43:55.429Z,3.30
2019-02-19T06:46:26.111Z,3.60
2019-02-19T06:48:56.715Z,3.90
2019-02-19T06:51:27.603Z,4.20
2019-02-19T06:53:58.434Z,4.50
2019-02-19T06:56:29.288Z,4.70
2019-02-19T06:58:59.925Z,4.90
2019-02-19T07:01:49.551Z,5.20
2019-02-19T07:04:24.201Z,5.40
2019-02-19T07:06:55.112Z,5.60
2019-02-19T07:09:25.578Z,5.80
2019-02-19T07:11:56.310Z,6.00
2019-02-19T07:14:26.794Z,6.20
2019-02-19T07:16:57.721Z,6.40
2019-02-19T07:19:28.418Z,6.50
2019-02-19T07:21:59.044Z,6.60
2019-02-19T07:24:29.624Z,6.90
2019-02-19T07:27:00.131Z,7.10
2019-02-19T07:29:30.932Z,7.30
2019-02-19T07:32:03.284Z,7.50
2019-02-19T07:34:34.200Z,7.70
2019-02-19T07:37:04.951Z,7.90
2019-02-19T07:39:35.756Z,8.10
2019-02-19T07:42:06.968Z,8.30
2019-02-19T07:44:37.586Z,8.40
2019-02-19T07:47:08.301Z,8.50
2019-02-19T07:49:38.845Z,8.70
2019-02-19T07:52:09.621Z,8.90
2019-02-19T07:54:40.149Z,9.10
2019-02-19T07:57:10.951Z,9.30
2019-02-19T07:59:41.966Z,9.50
2019-02-19T08:02:12.569Z,9.60
2019-02-19T08:04:43.303Z,9.90
2019-02-19T08:07:14.018Z,10.10
2019-02-19T08:09:44.516Z,10.30
2019-02-19T08:12:15.287Z,10.50
2019-02-19T08:14:45.969Z,10.70
2019-02-19T08:17:17.025Z,10.90
2019-02-19T08:19:48.842Z,11.10
2019-02-19T08:22:19.798Z,11.40
2019-02-19T08:24:52.475Z,11.60
2019-02-19T08:27:23.443Z,11.80
2019-02-19T08:29:54.369Z,12.10
2019-02-19T08:32:25.068Z,12.20
2019-02-19T08:34:55.832Z,12.50
2019-02-19T08:37:27.151Z,12.80
2019-02-19T08:39:58.397Z,12.90
2019-02-19T08:42:30.368Z,12.90
2019-02-19T08:45:01.438Z,12.80
2019-02-19T08:47:32.396Z,12.70
2019-02-19T08:50:02.999Z,12.70
2019-02-19T08:52:33.553Z,12.90
2019-02-19T08:55:04.472Z,13.10
2019-02-19T08:57:35.488Z,13.20
2019-02-19T09:00:08.512Z,13.40
2019-02-19T09:02:40.429Z,13.80
2019-02-19T09:05:11.045Z,14.10
2019-02-19T09:07:41.629Z,14.50
2019-02-19T09:10:12.818Z,14.60
2019-02-19T09:12:43.384Z,14.80
2019-02-19T09:15:14.049Z,14.90
2019-02-19T09:17:51.647Z,15.00
2019-02-19T09:20:16.912Z,15.20
2019-02-19T09:22:47.846Z,15.40
2019-02-19T09:25:18.557Z,15.60
2019-02-19T09:27:49.209Z,15.80
2019-02-19T09:30:20.228Z,15.70
2019-02-19T09:32:51.684Z,15.90
2019-02-19T09:35:23.265Z,15.60
2019-02-19T09:37:54.021Z,15.70
2019-02-19T09:40:24.870Z,15.80
2019-02-19T09:42:55.584Z,16.00
2019-02-19T09:45:26.439Z,15.90
2019-02-19T09:48:01.317Z,15.90
2019-02-19T09:50:29.511Z,16.00
2019-02-19T09:53:00.473Z,16.00
2019-02-19T09:55:31.360Z,15.90
2019-02-19T09:58:02.406Z,15.90
2019-02-19T10:00:32.917Z,15.90
2019-02-19T10:03:03.580Z,16.00
2019-02-19T10:05:34.393Z,16.10
2019-02-19T10:08:05.157Z,16.20
2019-02-19T10:10:35.882Z,16.10
2019-02-19T10:13:06.728Z,16.20
2019-02-19T10:15:37.358Z,16.20
2019-02-19T10:18:10.358Z,16.20
2019-02-19T10:20:40.182Z,16.30
2019-02-19T10:23:10.960Z,16.40
2019-02-19T10:25:41.763Z,16.40
2019-02-19T10:28:12.416Z,16.10
2019-02-19T10:30:43.345Z,15.80
2019-02-19T10:33:13.900Z,15.60
2019-02-19T10:35:44.585Z,15.70
2019-02-19T10:38:15.407Z,15.80
2019-02-19T10:40:46.079Z,15.70
2019-02-19T10:43:16.845Z,15.60
2019-02-19T10:45:47.952Z,15.70
2019-02-19T10:48:19.953Z,15.70
2019-02-19T10:50:50.843Z,15.60
2019-02-19T10:53:21.991Z,15.40
2019-02-19T10:55:53.047Z,15.20
2019-02-19T10:58:24.219Z,15.20
2019-02-19T11:00:55.239Z,15.10
2019-02-19T11:03:26.405Z,14.90
2019-02-19T11:05:57.209Z,14.80
2019-02-19T11:08:27.994Z,14.80
2019-02-19T11:10:58.621Z,14.60
2019-02-19T11:13:29.286Z,14.50
2019-02-19T11:16:00.818Z,14.40
2019-02-19T11:18:32.233Z,14.40
2019-02-19T11:21:02.859Z,14.30
2019-02-19T11:23:33.845Z,14.40
2019-02-19T11:26:04.944Z,14.20
2019-02-19T11:28:36.046Z,14.00
2019-02-19T11:31:06.785Z,14.00
2019-02-19T11:33:37.347Z,14.00
2019-02-19T11:36:07.892Z,13.90
2019-02-19T11:38:38.684Z,13.90
2019-02-19T11:41:09.432Z,13.90
2019-02-19T11:43:40.051Z,13.90
2019-02-19T11:46:11.126Z,13.90
2019-02-19T11:48:42.289Z,13.90
2019-02-19T11:51:12.996Z,13.90
2019-02-19T11:53:43.916Z,13.90
2019-02-19T11:56:14.785Z,13.90
2019-02-19T11:58:45.585Z,13.90
2019-02-19T12:01:16.154Z,13.90
2019-02-19T12:03:47.257Z,13.90
2019-02-19T12:06:18.104Z,13.80
2019-02-19T12:08:48.865Z,13.80
2019-02-19T12:11:19.818Z,13.70
2019-02-19T12:13:50.339Z,13.70
2019-02-19T12:16:21.231Z,13.70
2019-02-19T12:18:51.901Z,13.80
2019-02-19T12:21:22.589Z,13.70
2019-02-19T12:23:53.265Z,13.70
2019-02-19T12:26:24.083Z,13.70
2019-02-19T12:28:55.743Z,13.70
2019-02-19T12:31:26.527Z,13.60
2019-02-19T12:33:57.719Z,13.60
2019-02-19T12:36:28.565Z,13.60
2019-02-19T12:38:59.767Z,13.60
2019-02-19T12:41:30.578Z,13.60
2019-02-19T12:44:01.746Z,13.70
2019-02-19T12:46:32.670Z,13.70
2019-02-19T12:49:03.226Z,13.70
2019-02-19T12:51:33.842Z,13.70
2019-02-19T12:54:04.482Z,13.70
2019-02-19T12:56:35.576Z,13.70
2019-02-19T12:59:06.256Z,13.70
2019-02-19T13:01:37.182Z,13.70
2019-02-19T13:04:07.716Z,13.70
2019-02-19T13:06:38.379Z,13.70
2019-02-19T13:09:09.574Z,13.60
2019-02-19T13:11:40.366Z,13.70
2019-02-19T13:14:10.886Z,13.60
2019-02-19T13:16:41.711Z,13.60
2019-02-19T13:19:12.202Z,13.60
2019-02-19T13:21:42.910Z,13.60
2019-02-19T13:24:13.855Z,13.50
2019-02-19T13:26:44.372Z,13.50
2019-02-19T13:29:16.114Z,13.40
2019-02-19T13:31:46.726Z,13.50
2019-02-19T13:34:17.533Z,13.50
2019-02-19T13:36:48.294Z,13.40
2019-02-19T13:39:19.034Z,13.40
2019-02-19T13:41:49.717Z,13.40
2019-02-19T13:44:20.587Z,13.40
2019-02-19T13:46:51.123Z,13.30
2019-02-19T13:49:22.053Z,13.20
2019-02-19T13:51:54.293Z,13.20
2019-02-19T13:54:30.051Z,13.10
2019-02-19T13:57:00.830Z,13.10
2019-02-19T13:59:32.391Z,13.00
2019-02-19T14:02:03.078Z,13.00
2019-02-19T14:04:33.851Z,12.90
2019-02-19T14:07:04.547Z,12.90
2019-02-19T14:09:35.320Z,12.90
2019-02-19T14:12:06.163Z,12.90
2019-02-19T14:14:44.642Z,12.90
2019-02-19T14:17:17.589Z,12.90
2019-02-19T14:19:52.737Z,12.80
2019-02-19T14:22:48.156Z,12.80
2019-02-19T14:25:36.470Z,12.80
2019-02-19T14:28:25.941Z,12.80
2019-02-19T14:31:18.794Z,12.70
2019-02-19T14:34:12.480Z,12.60
2019-02-19T14:36:53.028Z,12.60
2019-02-19T14:39:41.681Z,12.60
2019-02-19T14:42:37.057Z,12.60
2019-02-19T14:45:42.379Z,12.60
2019-02-19T14:48:30.318Z,12.60
2019-02-19T14:51:32.329Z,12.50
2019-02-19T14:54:22.759Z,12.50
2019-02-19T14:57:14.649Z,12.50
2019-02-19T15:00:16.654Z,12.50
2019-02-19T15:03:11.907Z,12.50
2019-02-19T15:06:04.369Z,12.40
2019-02-19T15:08:44.269Z,12.30
2019-02-19T15:11:44.319Z,12.20
2019-02-19T15:14:44.423Z,12.20
2019-02-19T15:17:37.048Z,12.10
2019-02-19T15:20:37.978Z,12.00
2019-02-19T15:23:35.542Z,12.00
2019-02-19T15:26:25.737Z,11.90
2019-02-19T15:29:18.768Z,11.80
2019-02-19T15:31:59.801Z,11.80
2019-02-19T15:35:01.579Z,11.80
2019-02-19T15:37:51.229Z,11.70
2019-02-19T15:40:50.006Z,11.70
2019-02-19T15:43:38.218Z,11.60
2019-02-19T15:46:30.505Z,11.50
2019-02-19T15:49:23.662Z,11.40
2019-02-19T15:52:13.054Z,11.40
2019-02-19T15:55:16.960Z,11.30
2019-02-19T15:58:06.316Z,11.10
2019-02-19T16:01:05.543Z,11.10
2019-02-19T16:03:53.312Z,11.00
2019-02-19T16:06:31.362Z,10.90
2019-02-19T16:09:20.075Z,10.90
2019-02-19T16:12:16.495Z,10.80
2019-02-19T16:15:24.874Z,10.70
2019-02-19T16:18:23.963Z,10.70
2019-02-19T16:21:05.159Z,10.60
2019-02-19T16:24:01.103Z,10.50
2019-02-19T16:27:07.193Z,10.50
2019-02-19T16:30:00.492Z,10.50
2019-02-19T16:33:02.615Z,10.40
2019-02-19T16:36:10.527Z,10.40
2019-02-19T16:38:47.336Z,10.30
2019-02-19T16:41:29.931Z,10.30
2019-02-19T16:44:17.960Z,10.20
2019-02-19T16:47:10.691Z,10.10
2019-02-19T16:49:53.983Z,10.10
2019-02-19T16:52:40.317Z,10.00
2019-02-19T16:55:31.285Z,10.00
2019-02-19T16:58:22.659Z,9.90
2019-02-19T17:01:12.380Z,9.90
2019-02-19T17:03:58.444Z,9.80
2019-02-19T17:06:54.659Z,9.80
2019-02-19T17:09:33.434Z,9.70
2019-02-19T17:12:25.331Z,9.70
2019-02-19T17:15:13.941Z,9.70
2019-02-19T17:18:07.852Z,9.60
2019-02-19T17:20:55.797Z,9.50
2019-02-19T17:23:50.732Z,9.50
2019-02-19T17:26:46.344Z,9.40
2019-02-19T17:29:38.988Z,9.30
2019-02-19T17:32:33.032Z,9.30
2019-02-19T17:35:37.864Z,9.20
2019-02-19T17:38:15.855Z,9.10
2019-02-19T17:40:55.498Z,9.10
2019-02-19T17:43:45.438Z,9.00
2019-02-19T17:46:41.035Z,9.00
2019-02-19T17:49:36.207Z,9.00
2019-02-19T17:52:39.200Z,8.90
2019-02-19T17:55:27.728Z,8.90
2019-02-19T17:58:17.734Z,8.80
2019-02-19T18:00:59.766Z,8.80
2019-02-19T18:03:42.502Z,8.70
2019-02-19T18:06:24.381Z,8.70
2019-02-19T18:09:19.961Z,8.60
2019-02-19T18:12:15.462Z,8.60
2019-02-19T18:15:20.220Z,8.50
2019-02-19T18:18:10.024Z,8.50
2019-02-19T18:20:47.314Z,8.50
2019-02-19T18:23:15.568Z,8.40
2019-02-19T18:25:46.632Z,8.40
2019-02-19T18:28:17.958Z,8.40
2019-02-19T18:30:49.228Z,8.40
2019-02-19T18:33:20.442Z,8.40
2019-02-19T18:35:51.285Z,8.40
2019-02-19T18:38:22.560Z,8.40
2019-02-19T18:40:53.563Z,8.40
2019-02-19T18:43:24.615Z,8.50
2019-02-19T18:45:56.056Z,8.40
2019-02-19T18:48:27.042Z,8.40
2019-02-19T18:50:58.797Z,8.30
2019-02-19T18:53:30.109Z,8.20
2019-02-19T18:56:01.138Z,8.10
2019-02-19T18:58:32.040Z,8.00
2019-02-19T19:01:02.874Z,7.90
2019-02-19T19:03:34.430Z,7.90
2019-02-19T19:06:05.671Z,7.70
2019-02-19T19:08:36.926Z,7.70
2019-02-19T19:11:07.833Z,7.60
2019-02-19T19:13:38.281Z,7.60
2019-02-19T19:16:09.294Z,7.50
2019-02-19T19:18:40.381Z,7.50
2019-02-19T19:21:12.502Z,7.40
2019-02-19T19:23:45.736Z,7.30
2019-02-19T19:26:16.515Z,7.30
2019-02-19T19:28:47.617Z,7.30
2019-02-19T19:31:18.904Z,7.20
2019-02-19T19:33:50.005Z,7.20
2019-02-19T19:36:21.121Z,7.20
2019-02-19T19:38:52.123Z,7.10
2019-02-19T19:41:23.284Z,7.20
2019-02-19T19:43:54.034Z,7.10
2019-02-19T19:46:24.978Z,7.20
2019-02-19T19:48:55.709Z,7.20
2019-02-19T19:51:26.799Z,7.20
2019-02-19T19:53:57.808Z,7.30
2019-02-19T19:56:29.272Z,7.30
2019-02-19T19:59:00.339Z,7.30
2019-02-19T20:01:31.363Z,7.20
2019-02-19T20:04:03.244Z,7.30
2019-02-19T20:06:34.474Z,7.20
2019-02-19T20:09:06.905Z,7.20
2019-02-19T20:11:39.453Z,7.10
2019-02-19T20:14:10.394Z,7.10
2019-02-19T20:16:41.609Z,7.10
2019-02-19T20:19:14.548Z,7.10
2019-02-19T20:21:45.628Z,7.10
2019-02-19T20:24:16.852Z,7.10
2019-02-19T20:26:47.553Z,7.20
2019-02-19T20:29:18.687Z,7.20
2019-02-19T20:31:49.637Z,7.20
2019-02-19T20:34:20.906Z,7.20
2019-02-19T20:36:51.964Z,7.20
2019-02-19T20:39:23.353Z,7.30
2019-02-19T20:41:54.514Z,7.30
2019-02-19T20:44:25.570Z,7.30
2019-02-19T20:46:56.608Z,7.30
2019-02-19T20:49:27.738Z,7.30
2019-02-19T20:51:59.981Z,7.30
2019-02-19T20:54:31.027Z,7.30
2019-02-19T20:57:02.403Z,7.40
2019-02-19T20:59:33.630Z,7.40
2019-02-19T21:02:04.747Z,7.40
2019-02-19T21:04:35.754Z,7.40
2019-02-19T21:07:06.908Z,7.50
2019-02-19T21:09:43.897Z,7.40
2019-02-19T21:12:12.355Z,7.40
2019-02-19T21:14:43.276Z,7.40
2019-02-19T21:17:14.644Z,7.50
2019-02-19T21:19:45.747Z,7.40
2019-02-19T21:22:16.924Z,7.40
2019-02-19T21:24:48.371Z,7.50
2019-02-19T21:27:19.505Z,7.50
2019-02-19T21:29:52.014Z,7.50
2019-02-19T21:32:23.123Z,7.50
2019-02-19T21:34:53.912Z,7.50
2019-02-19T21:37:24.965Z,7.60
2019-02-19T21:39:56.433Z,7.60
2019-02-19T21:42:27.671Z,7.70
2019-02-19T21:44:58.922Z,7.70
2019-02-19T21:47:30.104Z,7.80
2019-02-19T21:50:01.223Z,7.70
2019-02-19T21:52:32.721Z,7.80
2019-02-19T21:55:04.636Z,7.80
2019-02-19T21:57:35.993Z,7.90
2019-02-19T22:00:08.447Z,7.80
2019-02-19T22:02:40.613Z,7.90
2019-02-19T22:05:11.595Z,7.80
2019-02-19T22:07:42.641Z,7.90
2019-02-19T22:10:14.061Z,7.90
2019-02-19T22:12:45.107Z,7.90
2019-02-19T22:15:17.692Z,7.90
2019-02-19T22:17:48.750Z,7.90
2019-02-19T22:20:50.747Z,7.90
2019-02-19T22:23:21.747Z,7.90
2019-02-19T22:25:52.867Z,7.90
2019-02-19T22:28:23.879Z,7.90
2019-02-19T22:30:55.254Z,7.80
2019-02-19T22:33:26.837Z,7.80
2019-02-19T22:35:58.413Z,7.80
2019-02-19T22:38:30.166Z,7.70
2019-02-19T22:41:02.477Z,7.80
2019-02-19T22:43:34.863Z,7.70
2019-02-19T22:46:06.964Z,7.60
2019-02-19T22:48:37.764Z,7.60
2019-02-19T22:51:09.060Z,7.50
2019-02-19T22:53:56.702Z,7.40
2019-02-19T22:56:34.480Z,7.40
2019-02-19T22:59:05.755Z,7.30
2019-02-19T23:01:43.069Z,7.30
2019-02-19T23:04:14.227Z,7.30
2019-02-19T23:06:45.340Z,7.20
2019-02-19T23:09:16.092Z,7.20
2019-02-19T23:11:47.000Z,7.20
2019-02-19T23:14:18.085Z,7.10
2019-02-19T23:16:48.926Z,7.10
2019-02-19T23:19:19.616Z,7.10
2019-02-19T23:21:50.336Z,7.00
2019-02-19T23:24:21.553Z,7.00
2019-02-19T23:26:52.331Z,6.90
2019-02-19T23:29:22.900Z,7.00
2019-02-19T23:31:53.644Z,7.00
2019-02-19T23:34:25.889Z,7.00
2019-02-19T23:37:00.292Z,6.90
2019-02-19T23:39:31.187Z,6.90
2019-02-19T23:42:01.943Z,6.90
2019-02-19T23:44:32.541Z,6.90
2019-02-19T23:47:03.465Z,6.80
2019-02-19T23:49:34.261Z,6.80
2019-02-19T23:52:04.729Z,6.80
2019-02-19T23:54:35.492Z,6.80
2019-02-19T23:57:06.149Z,6.70
2019-02-19T23:59:39.448Z,6.70
